TimeMDT,TemperatureF,Dew PointF,Humidity,Sea Level PressureIn,VisibilityMPH,Wind Direction,Wind SpeedMPH,Gust SpeedMPH,PrecipitationIn,Events,Conditions,WindDirDegrees,DateUTC
12:53 AM,34.0,8.1,34,30.04,10.0,Calm,Calm,-,N/A,,Clear,0,2012-11-02 06:53:00
1:53 AM,32.0,9.0,38,30.03,10.0,Calm,Calm,-,N/A,,Clear,0,2012-11-02 07:53:00
2:53 AM,30.9,8.1,38,30.05,10.0,Calm,Calm,-,N/A,,Clear,0,2012-11-02 08:53:00
3:53 AM,28.9,7.0,40,30.04,10.0,NE,3.5,-,N/A,,Clear,40,2012-11-02 09:53:00
4:53 AM,26.1,6.1,43,30.07,10.0,ENE,3.5,-,N/A,,Clear,60,2012-11-02 10:53:00
5:53 AM,26.1,8.1,47,30.09,10.0,ENE,4.6,-,N/A,,Clear,70,2012-11-02 11:53:00
6:53 AM,27.0,9.0,47,30.12,10.0,ENE,4.6,-,N/A,,Clear,70,2012-11-02 12:53:00
7:53 AM,27.0,7.0,43,30.16,10.0,Calm,Calm,-,N/A,,Clear,0,2012-11-02 13:53:00
8:53 AM,34.0,12.0,40,30.17,10.0,Calm,Calm,-,N/A,,Clear,0,2012-11-02 14:53:00
9:53 AM,41.0,12.9,32,30.15,10.0,Calm,Calm,-,N/A,,Clear,0,2012-11-02 15:53:00
10:53 AM,46.0,14.0,28,30.16,10.0,Calm,Calm,-,N/A,,Clear,0,2012-11-02 16:53:00
11:53 AM,54.0,10.0,17,30.09,10.0,East,4.6,-,N/A,,Clear,90,2012-11-02 17:53:00
12:53 PM,57.0,10.9,16,30.08,10.0,Variable,3.5,-,N/A,,Clear,0,2012-11-02 18:53:00
1:53 PM,60.1,10.0,14,30.06,10.0,SSW,4.6,-,N/A,,Clear,210,2012-11-02 19:53:00
2:53 PM,61.0,9.0,13,30.04,10.0,WSW,8.1,-,N/A,,Clear,240,2012-11-02 20:53:00
3:53 PM,60.1,10.0,14,30.04,10.0,SSW,10.4,-,N/A,,Clear,200,2012-11-02 21:53:00
4:53 PM,59.0,10.0,14,30.06,10.0,SSW,10.4,-,N/A,,Clear,200,2012-11-02 22:53:00
5:53 PM,57.0,10.0,15,30.08,10.0,SSW,5.8,-,N/A,,Clear,200,2012-11-02 23:53:00
6:53 PM,52.0,10.0,19,30.11,10.0,SW,3.5,-,N/A,,Clear,230,2012-11-03 00:53:00
7:53 PM,51.1,10.0,19,30.13,10.0,SW,4.6,-,N/A,,Clear,230,2012-11-03 01:53:00
8:53 PM,46.0,10.9,24,30.13,10.0,North,4.6,-,N/A,,Clear,350,2012-11-03 02:53:00
9:53 PM,39.0,10.0,30,30.15,10.0,NNW,4.6,-,N/A,,Clear,340,2012-11-03 03:53:00
10:53 PM,36.0,10.0,34,30.15,10.0,North,5.8,-,N/A,,Clear,10,2012-11-03 04:53:00
11:53 PM,34.0,10.9,38,30.12,10.0,Calm,Calm,-,N/A,,Clear,0,2012-11-03 05:53:00